Flight Track Log - Related Links

Times and Time Zones

All times are in EDT time to prevent confusion due to time zone crossing. See the 9V-SKA flight status page for this flight to view local times or setup timezone preferences in your user account.

Time Position Orientation Groundspeed Altitude Reporting Facility
EDT Latitude Longitude Course Direction KTS MPH feet Rate Location/Type
Wed 09:52:39 PM 1.3390 103.9890 202° Southwest 109 125 200  Level FlightAware
Wed 09:53:09 PM 1.3580 103.9970 23° Northeast 156 180 400 900 Climbing FlightAware
Wed 09:53:39 PM 1.3760 104.0090 34° Northeast 150 173 1,100 1,350 Climbing FlightAware
Wed 09:53:49 PM 1.3810 104.0130 39° Northeast 152 175 1,300 1,050 Climbing FlightAware
Wed 09:54:19 PM 1.3970 104.0280 43° Northeast 159 183 1,800 1,000 Climbing FlightAware
Wed 09:54:49 PM 1.4150 104.0440 42° Northeast 194 223 2,300 873 Climbing FlightAware
Wed 09:55:14 PM 1.4330 104.0600 42° Northeast 228 262 2,600 1,200 Climbing FlightAware
Wed 09:55:29 PM 1.4440 104.0710 45° Northeast 238 274 3,100 2,200 Climbing FlightAware
Wed 09:55:44 PM 1.4510 104.0880 68° East 244 281 3,700 1,855 Climbing FlightAware
Wed 09:56:24 PM 1.4420 104.1330 101° East 280 322 4,800 1,971 Climbing FlightAware
Wed 09:56:54 PM 1.4260 104.1710 113° Southeast 286 329 6,000 2,509 Climbing FlightAware
Wed 09:57:19 PM 1.4130 104.2020 113° Southeast 291 335 7,100 2,400 Climbing FlightAware
Wed 09:57:49 PM 1.3970 104.2380 114° Southeast 296 341 8,200 2,400 Climbing FlightAware
Wed 09:58:09 PM 1.3870 104.2630 112° Southeast 297 342 9,100 2,057 Climbing FlightAware
Wed 09:58:59 PM 1.3620 104.3260 112° Southeast 319 367 10,600 1,400 Climbing FlightAware
Wed 09:59:39 PM 1.3360 104.3890 112° Southeast 360 414 11,200 847 Climbing FlightAware
Wed 10:00:24 PM 1.3310 104.4660 94° East 397 457 11,800 1,271 Climbing FlightAware
Wed 10:01:04 PM 1.3330 104.5400 88° East 407 468 13,000 1,765 Climbing FlightAware
Wed 10:01:49 PM 1.3350 104.6250 89° East 418 481 14,300 1,835 Climbing FlightAware
Wed 10:02:29 PM 1.3370 104.7020 89° East 422 486 15,600 1,389 Climbing FlightAware
Wed 10:03:24 PM 1.3400 104.8080 88° East 426 490 16,500 1,020 Climbing FlightAware
Wed 10:04:09 PM 1.3430 104.8910 88° East 428 493 17,300 565 Climbing FlightAware
Wed 10:04:49 PM 1.3450 104.9580 88° East 428 493 17,300  Level FlightAware
Wed 10:05:29 PM 1.3470 105.0260 88° East 428 493 17,300  Level FlightAware
Wed 10:06:09 PM 1.3500 105.0930 87° East 428 493 17,300 3,675 Level FlightAware
Wed 10:06:49 PM 1.3650 105.2160 83° East 445 512 22,200 4,024 Climbing FlightAware
Wed 10:07:34 PM 1.3930 105.3080 73° East 451 519 23,000 686 Climbing FlightAware
Wed 10:08:34 PM 1.4300 105.4210 72° East 455 524 23,400 240 Climbing FlightAware
Wed 10:09:14 PM 1.4520 105.4890 72° East 455 524 23,400 1,200 Level FlightAware
Wed 10:10:19 PM 1.4900 105.6400 76° East 466 536 25,500 1,650 Climbing FlightAware
Wed 10:11:14 PM 1.5370 105.7540 68° East 478 550 26,700 1,011 Climbing FlightAware
Wed 10:11:54 PM 1.6050 105.8150 42° Northeast 490 564 27,100 975 Climbing FlightAware
Wed 10:12:34 PM 1.6790 105.8610 32° Northeast 489 563 28,000 635 Climbing FlightAware
Wed 10:13:19 PM 1.7590 105.9110 32° Northeast 489 563 28,000  Level FlightAware
Wed 10:13:59 PM 1.8240 105.9510 32° Northeast 489 563 28,000 1,133 Level FlightAware
Wed 10:14:49 PM 1.9440 106.0250 32° Northeast 502 578 29,700 1,860 Climbing FlightAware
Wed 10:15:39 PM 2.0490 106.0910 32° Northeast 503 579 31,100 1,267 Climbing FlightAware
Wed 10:16:19 PM 2.1290 106.1400 31° Northeast 506 582 31,600 1,059 Climbing FlightAware
Wed 10:17:04 PM 2.2150 106.1970 34° Northeast 502 578 32,600 988 Climbing FlightAware
Wed 10:17:44 PM 2.2710 106.2680 52° Northeast 497 572 33,000 450 Climbing FlightAware
Wed 10:18:24 PM 2.3250 106.3430 54° Northeast 500 575 33,200 918 Climbing FlightAware
Wed 10:19:09 PM 2.3880 106.4290 54° Northeast 496 571 34,300 1,129 Climbing FlightAware
Wed 10:19:49 PM 2.4440 106.5030 53° Northeast 498 573 34,800 667 Climbing FlightAware
Wed 10:20:39 PM 2.5100 106.5890 52° Northeast 497 572 35,300 1,560 Climbing FlightAware
Wed 10:21:29 PM 2.6000 106.6690 42° Northeast 481 554 37,400 1,765 Climbing FlightAware
Wed 10:22:04 PM 2.6580 106.7130 37° Northeast 481 554 37,800 635 Climbing FlightAware
Wed 10:22:54 PM 2.7480 106.7810 37° Northeast 481 554 38,300 771 Climbing FlightAware
Wed 10:23:14 PM 2.7800 106.8060 38° Northeast 478 550 38,700 494 Climbing FlightAware
Wed 10:24:19 PM 2.8950 106.8900 36° Northeast 475 547 39,000 171 Climbing FlightAware
Wed 10:24:59 PM 2.9570 106.9320 34° Northeast 475 547 39,000  Level FlightAware
Wed 10:25:39 PM 3.0850 106.9060 349° North 487 560 39,000  Level FlightAware
Wed 10:26:24 PM 3.1730 106.9100 North 487 560 39,000  Level FlightAware
Wed 10:27:04 PM 3.2490 106.9150 North 487 560 39,000  Level FlightAware
Wed 10:27:44 PM 3.3260 106.9190 North 487 560 39,000  Level FlightAware
Wed 10:28:34 PM 3.4210 106.9240 North 487 560 39,000  Level FlightAware
Wed 10:29:14 PM 3.4980 106.9280 North 487 560 39,000  Level FlightAware
Wed 10:29:54 PM 3.5740 106.9320 North 487 560 39,000  Level FlightAware
Wed 10:30:34 PM 3.6510 106.9360 North 487 560 39,000  Level FlightAware
Wed 10:31:14 PM 3.7270 106.9400 North 487 560 39,000  Level FlightAware
Wed 10:31:54 PM 3.8040 106.9440 North 487 560 39,000  Level FlightAware
Wed 10:32:44 PM 3.8990 106.9490 North 487 560 39,000  Level FlightAware
Wed 10:33:24 PM 3.9760 106.9530 North 487 560 39,000  Level FlightAware
Wed 10:34:04 PM 4.0520 106.9570 North 487 560 39,000  Level FlightAware
Wed 10:34:44 PM 4.1290 106.9610 North 487 560 39,000  Level FlightAware
Wed 10:35:34 PM 4.2250 106.9660 North 487 560 39,000  Level FlightAware
Wed 10:38:00 PM 4.4839 107.1838 40° Northeast  Level Estimated
Wed 10:39:00 PM 4.5903 107.2733 40° Northeast  Level Estimated
Wed 10:40:00 PM 4.6967 107.3629 40° Northeast  Level Estimated
Wed 10:41:00 PM 4.8030 107.4525 40° Northeast  Level Estimated
Wed 10:42:00 PM 4.9093 107.5421 40° Northeast  Level Estimated
Wed 10:43:00 PM 5.0157 107.6318 40° Northeast  Level Estimated
Wed 10:44:00 PM 5.1220 107.7215 40° Northeast  Level Estimated
Wed 10:45:00 PM 5.2283 107.8112 40° Northeast  Level Estimated
Wed 10:46:00 PM 5.3346 107.9009 40° Northeast  Level Estimated
Wed 10:47:00 PM 5.4409 107.9907 40° Northeast  Level Estimated
Wed 10:48:00 PM 5.5472 108.0805 40° Northeast  Level Estimated
Wed 10:49:00 PM 5.6534 108.1704 40° Northeast  Level Estimated
Wed 10:50:00 PM 5.7596 108.2602 40° Northeast  Level Estimated
Wed 10:51:00 PM 5.8659 108.3502 40° Northeast  Level Estimated
Wed 10:52:00 PM 5.9721 108.4401 40° Northeast  Level Estimated
Wed 10:53:00 PM 6.0783 108.5301 40° Northeast  Level Estimated
Wed 10:54:00 PM 6.1845 108.6201 40° Northeast  Level Estimated
Wed 10:55:00 PM 6.2906 108.7101 40° Northeast  Level Estimated
Wed 10:56:00 PM 6.3968 108.8002 40° Northeast  Level Estimated
Wed 10:57:00 PM 6.5029 108.8903 40° Northeast  Level Estimated
Wed 10:58:00 PM 6.6090 108.9805 40° Northeast  Level Estimated
Wed 10:59:00 PM 6.7151 109.0707 40° Northeast  Level Estimated
Wed 11:00:00 PM 6.8212 109.1609 40° Northeast  Level Estimated
Wed 11:01:00 PM 6.9273 109.2512 40° Northeast  Level Estimated
Wed 11:02:00 PM 7.0333 109.3415 40° Northeast  Level Estimated
Wed 11:03:00 PM 7.1394 109.4319 40° Northeast  Level Estimated
Wed 11:04:00 PM 7.2454 109.5223 40° Northeast  Level Estimated
Wed 11:05:00 PM 7.3514 109.6127 40° Northeast  Level Estimated
Wed 11:06:00 PM 7.4574 109.7032 40° Northeast  Level Estimated
Wed 11:07:00 PM 7.5634 109.7938 40° Northeast  Level Estimated
Wed 11:08:00 PM 7.6693 109.8843 40° Northeast  Level Estimated
Wed 11:09:00 PM 7.7752 109.9750 40° Northeast  Level Estimated
Wed 11:10:00 PM 7.8811 110.0656 40° Northeast  Level Estimated
Wed 11:11:00 PM 7.9870 110.1563 40° Northeast  Level Estimated
Wed 11:12:00 PM 8.0929 110.2471 40° Northeast  Level Estimated
Wed 11:13:00 PM 8.1987 110.3379 40° Northeast  Level Estimated
Wed 11:14:00 PM 8.3046 110.4288 40° Northeast  Level Estimated
Wed 11:15:00 PM 8.4104 110.5197 40° Northeast  Level Estimated
Wed 11:16:00 PM 8.5162 110.6106 40° Northeast  Level Estimated
Wed 11:17:00 PM 8.6220 110.7017 40° Northeast  Level Estimated
Wed 11:18:00 PM 8.7277 110.7927 40° Northeast  Level Estimated
Wed 11:19:00 PM 8.8334 110.8838 40° Northeast  Level Estimated
Wed 11:20:00 PM 8.9391 110.9750 40° Northeast  Level Estimated
Wed 11:21:00 PM 9.0448 111.0662 40° Northeast  Level Estimated
Wed 11:22:00 PM 9.1504 111.1575 40° Northeast  Level Estimated
Wed 11:23:00 PM 9.2561 111.2488 40° Northeast  Level Estimated
Wed 11:24:00 PM 9.3617 111.3402 40° Northeast  Level Estimated
Wed 11:25:00 PM 9.4673 111.4316 40° Northeast  Level Estimated
Wed 11:26:00 PM 9.5728 111.5231 41° Northeast  Level Estimated
Wed 11:27:00 PM 9.6784 111.6146 41° Northeast  Level Estimated
Wed 11:28:00 PM 9.7839 111.7062 41° Northeast  Level Estimated
Wed 11:29:00 PM 9.8894 111.7979 41° Northeast  Level Estimated
Wed 11:30:00 PM 9.9949 111.8896 41° Northeast  Level Estimated
Wed 11:31:00 PM 10.1003 111.9814 41° Northeast  Level Estimated
Wed 11:32:00 PM 10.2057 112.0732 41° Northeast  Level Estimated
Wed 11:33:00 PM 10.3111 112.1651 41° Northeast  Level Estimated
Wed 11:34:00 PM 10.4164 112.2571 41° Northeast  Level Estimated
Wed 11:35:00 PM 10.5218 112.3491 41° Northeast  Level Estimated
Wed 11:36:00 PM 10.6271 112.4412 41° Northeast  Level Estimated
Wed 11:37:00 PM 10.7324 112.5333 41° Northeast  Level Estimated
Wed 11:38:00 PM 10.8376 112.6255 41° Northeast  Level Estimated
Wed 11:39:00 PM 10.9429 112.7178 41° Northeast  Level Estimated
Wed 11:40:00 PM 11.0481 112.8102 41° Northeast  Level Estimated
Wed 11:41:00 PM 11.1532 112.9026 41° Northeast  Level Estimated
Wed 11:42:00 PM 11.2584 112.9951 41° Northeast  Level Estimated
Wed 11:43:00 PM 11.3635 113.0876 41° Northeast  Level Estimated
Wed 11:44:00 PM 11.4686 113.1802 41° Northeast  Level Estimated
Wed 11:45:00 PM 11.5737 113.2729 41° Northeast  Level Estimated
Wed 11:46:00 PM 11.6787 113.3656 41° Northeast  Level Estimated
Wed 11:47:00 PM 11.7837 113.4585 41° Northeast  Level Estimated
Wed 11:48:00 PM 11.8886 113.5514 41° Northeast  Level Estimated
Wed 11:49:00 PM 11.9936 113.6443 41° Northeast  Level Estimated
Wed 11:50:00 PM 12.0985 113.7374 41° Northeast  Level Estimated
Wed 11:51:00 PM 12.2034 113.8305 41° Northeast  Level Estimated
Wed 11:52:00 PM 12.3082 113.9236 41° Northeast  Level Estimated
Wed 11:53:00 PM 12.4130 114.0169 41° Northeast  Level Estimated
Wed 11:54:00 PM 12.5178 114.1102 41° Northeast  Level Estimated
Wed 11:55:00 PM 12.6226 114.2036 41° Northeast  Level Estimated
Wed 11:56:00 PM 12.7273 114.2971 41° Northeast  Level Estimated
Wed 11:57:00 PM 12.8320 114.3907 41° Northeast  Level Estimated
Wed 11:58:00 PM 12.9366 114.4843 41° Northeast  Level Estimated
Wed 11:59:00 PM 13.0412 114.5780 41° Northeast  Level Estimated
Thu 12:00:00 AM 13.1458 114.6719 41° Northeast  Level Estimated
Thu 12:01:00 AM 13.2504 114.7657 41° Northeast  Level Estimated
Thu 12:02:00 AM 13.3549 114.8597 41° Northeast  Level Estimated
Thu 12:03:00 AM 13.4594 114.9537 41° Northeast  Level Estimated
Thu 12:04:00 AM 13.5638 115.0479 41° Northeast  Level Estimated
Thu 12:05:00 AM 13.6682 115.1421 41° Northeast  Level Estimated
Thu 12:06:00 AM 13.7726 115.2364 41° Northeast  Level Estimated
Thu 12:07:00 AM 13.8770 115.3307 41° Northeast  Level Estimated
Thu 12:08:00 AM 13.9812 115.4252 41° Northeast  Level Estimated
Thu 12:09:00 AM 14.0855 115.5197 41° Northeast  Level Estimated
Thu 12:10:00 AM 14.1897 115.6143 41° Northeast  Level Estimated
Thu 12:11:00 AM 14.2939 115.7091 41° Northeast  Level Estimated
Thu 12:12:00 AM 14.3981 115.8039 41° Northeast  Level Estimated
Thu 12:13:00 AM 14.5022 115.8988 41° Northeast  Level Estimated
Thu 12:14:00 AM 14.6063 115.9938 41° Northeast  Level Estimated
Thu 12:15:00 AM 14.7103 116.0888 41° Northeast  Level Estimated
Thu 12:16:00 AM 14.8143 116.1840 41° Northeast  Level Estimated
Thu 12:17:00 AM 14.9183 116.2792 42° Northeast  Level Estimated
Thu 12:18:00 AM 15.0222 116.3746 42° Northeast  Level Estimated
Thu 12:19:00 AM 15.1261 116.4700 42° Northeast  Level Estimated
Thu 12:20:00 AM 15.2299 116.5656 42° Northeast  Level Estimated
Thu 12:21:00 AM 15.3337 116.6612 42° Northeast  Level Estimated
Thu 12:22:00 AM 15.4375 116.7569 42° Northeast  Level Estimated
Thu 12:23:00 AM 15.5412 116.8527 42° Northeast  Level Estimated
Thu 12:24:00 AM 15.6449 116.9486 42° Northeast  Level Estimated
Thu 12:25:00 AM 15.7485 117.0447 42° Northeast  Level Estimated
Thu 12:26:00 AM 15.8521 117.1408 42° Northeast  Level Estimated
Thu 12:27:00 AM 15.9557 117.2370 42° Northeast  Level Estimated
Thu 12:28:00 AM 16.0592 117.3333 42° Northeast  Level Estimated
Thu 12:29:00 AM 16.1627 117.4297 42° Northeast  Level Estimated
Thu 12:30:00 AM 16.2661 117.5262 42° Northeast  Level Estimated
Thu 12:31:00 AM 16.3695 117.6228 42° Northeast  Level Estimated
Thu 12:32:00 AM 16.4728 117.7195 42° Northeast  Level Estimated
Thu 12:33:00 AM 16.5761 117.8164 42° Northeast  Level Estimated
Thu 12:34:00 AM 16.6793 117.9133 42° Northeast  Level Estimated
Thu 12:35:00 AM 16.7825 118.0103 42° Northeast  Level Estimated
Thu 12:36:00 AM 16.8857 118.1074 42° Northeast  Level Estimated
Thu 12:37:00 AM 16.9888 118.2047 42° Northeast  Level Estimated
Thu 12:38:00 AM 17.0919 118.3020 42° Northeast  Level Estimated
Thu 12:39:00 AM 17.1949 118.3995 42° Northeast  Level Estimated
Thu 12:40:00 AM 17.2979 118.4970 42° Northeast  Level Estimated
Thu 12:41:00 AM 17.4008 118.5947 42° Northeast  Level Estimated
Thu 12:42:00 AM 17.5037 118.6925 42° Northeast  Level Estimated
Thu 12:43:00 AM 17.6065 118.7904 42° Northeast  Level Estimated
Thu 12:44:00 AM 17.7093 118.8884 42° Northeast  Level Estimated
Thu 12:45:00 AM 17.8120 118.9865 42° Northeast  Level Estimated
Thu 12:46:00 AM 17.9147 119.0847 42° Northeast  Level Estimated
Thu 12:47:00 AM 18.0173 119.1830 42° Northeast  Level Estimated
Thu 12:48:00 AM 18.1199 119.2815 42° Northeast  Level Estimated
Thu 12:49:00 AM 18.2224 119.3801 42° Northeast  Level Estimated
Thu 12:50:00 AM 18.3249 119.4788 42° Northeast  Level Estimated
Thu 12:51:00 AM 18.4273 119.5776 42° Northeast  Level Estimated
Thu 12:52:00 AM 18.5297 119.6765 42° Northeast  Level Estimated
Thu 12:53:00 AM 18.6320 119.7755 43° Northeast  Level Estimated
Thu 12:54:00 AM 18.7343 119.8747 43° Northeast  Level Estimated
Thu 12:55:00 AM 18.8365 119.9740 43° Northeast  Level Estimated
Thu 12:56:00 AM 18.9387 120.0734 43° Northeast  Level Estimated
Thu 12:57:00 AM 19.0408 120.1729 43° Northeast  Level Estimated
Thu 12:58:00 AM 19.1429 120.2725 43° Northeast  Level Estimated
Thu 12:59:00 AM 19.2449 120.3723 43° Northeast  Level Estimated
Thu 01:00:00 AM 19.3469 120.4722 43° Northeast  Level Estimated
Thu 01:01:00 AM 19.4488 120.5722 43° Northeast  Level Estimated
Thu 01:02:00 AM 19.5506 120.6723 43° Northeast  Level Estimated
Thu 01:03:00 AM 19.6524 120.7726 43° Northeast  Level Estimated
Thu 01:04:00 AM 19.7542 120.8730 43° Northeast  Level Estimated
Thu 01:04:34 AM 19.9420 121.2610 43° Northeast 535 616 39,000  Level FlightAware
Thu 01:05:00 AM 19.8558 120.9735 43° Northeast  Level Estimated
Thu 01:05:09 AM 19.9940 121.3220 48° Northeast 535 616 39,000  Level FlightAware
Thu 01:05:59 AM 20.0640 121.4060 48° Northeast 535 616 39,000  Level FlightAware
Thu 01:06:39 AM 20.1210 121.4720 47° Northeast 535 616 39,000  Level FlightAware
Thu 01:07:19 AM 20.2090 121.5840 50° Northeast 537 618 39,000  Level FlightAware
Thu 01:08:19 AM 20.3050 121.7000 49° Northeast 536 617 39,000  Level FlightAware
Thu 01:08:59 AM 20.3760 121.7860 49° Northeast 535 616 39,000  Level FlightAware
Thu 01:09:34 AM 20.4260 121.8470 49° Northeast 535 616 39,000  Level FlightAware
Thu 01:10:19 AM 20.4930 121.9270 48° Northeast 535 616 39,000  Level FlightAware
Thu 01:10:54 AM 20.5610 122.0110 49° Northeast 537 618 39,000  Level FlightAware
Thu 01:11:59 AM 20.6630 122.1370 49° Northeast 537 618 39,000  Level FlightAware
Thu 01:12:44 AM 20.7430 122.2340 49° Northeast 535 616 39,000  Level FlightAware
Thu 01:13:24 AM 20.8040 122.3090 49° Northeast 535 616 39,000  Level FlightAware
Thu 01:14:09 AM 20.8780 122.4000 49° Northeast 537 618 39,000  Level FlightAware
Thu 01:14:49 AM 20.9360 122.4710 49° Northeast 539 620 39,000  Level FlightAware
Thu 01:15:24 AM 20.9910 122.5370 48° Northeast 539 620 39,000  Level FlightAware
Thu 01:16:14 AM 21.0620 122.6210 48° Northeast 539 620 39,000  Level FlightAware
Thu 01:16:19 AM 21.1130 122.6280 North 528 608 39,000  Level FlightAware
Thu 01:17:04 AM 21.1970 122.6850 32° Northeast 528 608 39,000  Level FlightAware
Thu 01:17:44 AM 21.2680 122.7320 32° Northeast 528 608 39,000  Level FlightAware
Thu 01:18:34 AM 21.3560 122.7910 32° Northeast 528 608 39,000  Level FlightAware
Thu 01:19:14 AM 21.4260 122.8380 32° Northeast 528 608 39,000  Level FlightAware
Thu 01:19:54 AM 21.4970 122.8860 32° Northeast 528 608 39,000  Level FlightAware
Thu 01:20:34 AM 21.5670 122.9330 32° Northeast 528 608 39,000  Level FlightAware
Thu 01:21:14 AM 21.6380 122.9800 32° Northeast 528 608 39,000  Level FlightAware
Thu 01:22:04 AM 21.7260 123.0400 32° Northeast 528 608 39,000  Level FlightAware
Thu 01:22:44 AM 21.7960 123.0870 32° Northeast 528 608 39,000  Level FlightAware
Thu 01:23:24 AM 21.8670 123.1340 32° Northeast 528 608 39,000  Level FlightAware
Thu 01:24:04 AM 21.9370 123.1820 32° Northeast 528 608 39,000  Level FlightAware
Thu 01:24:44 AM 22.0070 123.2290 32° Northeast 528 608 39,000  Level FlightAware
Thu 01:25:34 AM 22.0950 123.2890 32° Northeast 528 608 39,000  Level FlightAware
Thu 01:26:14 AM 22.1660 123.3360 32° Northeast 528 608 39,000  Level FlightAware
Thu 01:28:00 AM 22.3431 123.5194 44° Northeast  Level Estimated
Thu 01:29:00 AM 22.4433 123.6234 44° Northeast  Level Estimated
Thu 01:30:00 AM 22.5434 123.7276 44° Northeast  Level Estimated
Thu 01:31:00 AM 22.6434 123.8319 44° Northeast  Level Estimated
Thu 01:32:00 AM 22.7434 123.9364 44° Northeast  Level Estimated
Thu 01:33:00 AM 22.8433 124.0410 44° Northeast  Level Estimated
Thu 01:34:00 AM 22.9431 124.1458 44° Northeast  Level Estimated
Thu 01:35:00 AM 23.0429 124.2507 44° Northeast  Level Estimated
Thu 01:36:00 AM 23.1426 124.3558 44° Northeast  Level Estimated
Thu 01:37:00 AM 23.2423 124.4611 44° Northeast  Level Estimated
Thu 01:38:00 AM 23.3418 124.5665 44° Northeast  Level Estimated
Thu 01:39:00 AM 23.4413 124.6721 44° Northeast  Level Estimated
Thu 01:40:00 AM 23.5407 124.7778 44° Northeast  Level Estimated
Thu 01:41:00 AM 23.6401 124.8837 44° Northeast  Level Estimated
Thu 01:42:00 AM 23.7393 124.9897 44° Northeast  Level Estimated
Thu 01:43:00 AM 23.8385 125.0959 44° Northeast  Level Estimated
Thu 01:44:00 AM 23.9377 125.2023 44° Northeast  Level Estimated
Thu 01:45:00 AM 24.0367 125.3088 44° Northeast  Level Estimated
Thu 01:46:00 AM 24.1357 125.4155 45° Northeast  Level Estimated
Thu 01:47:00 AM 24.2346 125.5223 45° Northeast  Level Estimated
Thu 01:48:00 AM 24.3334 125.6294 45° Northeast  Level Estimated
Thu 01:49:00 AM 24.4322 125.7366 45° Northeast  Level Estimated
Thu 01:50:00 AM 24.5308 125.8439 45° Northeast  Level Estimated
Thu 01:51:00 AM 24.6294 125.9515 45° Northeast  Level Estimated
Thu 01:52:00 AM 24.7280 126.0592 45° Northeast  Level Estimated
Thu 01:53:00 AM 24.8264 126.1670 45° Northeast  Level Estimated
Thu 01:54:00 AM 24.9248 126.2751 45° Northeast  Level Estimated
Thu 01:55:00 AM 25.0231 126.3833 45° Northeast  Level Estimated
Thu 01:56:00 AM 25.1213 126.4917 45° Northeast  Level Estimated
Thu 01:57:00 AM 25.2194 126.6002 45° Northeast  Level Estimated
Thu 01:58:00 AM 25.3175 126.7090 45° Northeast  Level Estimated
Thu 01:59:00 AM 25.4155 126.8179 45° Northeast  Level Estimated
Thu 02:00:00 AM 25.5134 126.9270 45° Northeast  Level Estimated
Thu 02:01:00 AM 25.6112 127.0362 45° Northeast  Level Estimated
Thu 02:02:00 AM 25.7089 127.1457 45° Northeast  Level Estimated
Thu 02:03:00 AM 25.8066 127.2553 45° Northeast  Level Estimated
Thu 02:04:00 AM 25.9041 127.3651 45° Northeast  Level Estimated
Thu 02:05:00 AM 26.0016 127.4751 45° Northeast  Level Estimated
Thu 02:06:00 AM 26.0990 127.5853 45° Northeast  Level Estimated
Thu 02:07:00 AM 26.1964 127.6956 45° Northeast  Level Estimated
Thu 02:08:00 AM 26.2936 127.8062 46° Northeast  Level Estimated
Thu 02:09:00 AM 26.3907 127.9169 46° Northeast  Level Estimated
Thu 02:10:00 AM 26.4878 128.0278 46° Northeast  Level Estimated
Thu 02:11:00 AM 26.5848 128.1389 46° Northeast  Level Estimated
Thu 02:12:00 AM 26.6817 128.2502 46° Northeast  Level Estimated
Thu 02:13:00 AM 26.7785 128.3617 46° Northeast  Level Estimated
Thu 02:14:00 AM 26.8752 128.4734 46° Northeast  Level Estimated
Thu 02:15:00 AM 26.9718 128.5852 46° Northeast  Level Estimated
Thu 02:16:00 AM 27.0684 128.6973 46° Northeast  Level Estimated
Thu 02:17:00 AM 27.1648 128.8095 46° Northeast  Level Estimated
Thu 02:18:00 AM 27.2612 128.9220 46° Northeast  Level Estimated
Thu 02:19:00 AM 27.3575 129.0346 46° Northeast  Level Estimated
Thu 02:20:00 AM 27.4536 129.1474 46° Northeast  Level Estimated
Thu 02:21:00 AM 27.5497 129.2605 46° Northeast  Level Estimated
Thu 02:22:00 AM 27.6457 129.3737 46° Northeast  Level Estimated
Thu 02:23:00 AM 27.7416 129.4871 46° Northeast  Level Estimated
Thu 02:24:00 AM 27.8375 129.6007 46° Northeast  Level Estimated
Thu 02:25:00 AM 27.9332 129.7145 46° Northeast  Level Estimated
Thu 02:26:00 AM 28.0288 129.8286 46° Northeast  Level Estimated
Thu 02:27:00 AM 28.1243 129.9428 47° Northeast  Level Estimated
Thu 02:28:00 AM 28.2198 130.0572 47° Northeast  Level Estimated
Thu 02:29:00 AM 28.3151 130.1718 47° Northeast  Level Estimated
Thu 02:30:00 AM 28.4104 130.2867 47° Northeast  Level Estimated
Thu 02:31:00 AM 28.5055 130.4017 47° Northeast  Level Estimated
Thu 02:32:00 AM 28.6006 130.5170 47° Northeast  Level Estimated
Thu 02:33:00 AM 28.6955 130.6325 47° Northeast  Level Estimated
Thu 02:34:00 AM 28.7904 130.7481 47° Northeast  Level Estimated
Thu 02:35:00 AM 28.8852 130.8640 47° Northeast  Level Estimated
Thu 02:36:00 AM 28.9798 130.9801 47° Northeast  Level Estimated
Thu 02:37:00 AM 29.0744 131.0964 47° Northeast  Level Estimated
Thu 02:38:00 AM 29.1688 131.2129 47° Northeast  Level Estimated
Thu 02:39:00 AM 29.2632 131.3297 47° Northeast  Level Estimated
Thu 02:40:00 AM 29.3575 131.4466 47° Northeast  Level Estimated
Thu 02:41:00 AM 29.4516 131.5638 47° Northeast  Level Estimated
Thu 02:42:00 AM 29.5457 131.6812 47° Northeast  Level Estimated
Thu 02:43:00 AM 29.6396 131.7988 47° Northeast  Level Estimated
Thu 02:44:00 AM 29.7335 131.9166 47° Northeast  Level Estimated
Thu 02:45:00 AM 29.8272 132.0347 48° Northeast  Level Estimated
Thu 02:46:00 AM 29.9208 132.1529 48° Northeast  Level Estimated
Thu 02:47:00 AM 30.0144 132.2714 48° Northeast  Level Estimated
Thu 02:48:00 AM 30.1078 132.3901 48° Northeast  Level Estimated
Thu 02:49:00 AM 30.2011 132.5091 48° Northeast  Level Estimated
Thu 02:49:29 AM 31.3660 134.5410 48° Northeast 603 694 39,000  Level FlightAware
Thu 02:50:00 AM 30.2943 132.6282 48° Northeast  Level Estimated
Thu 02:50:09 AM 31.4380 134.6490 52° Northeast 602 693 39,000  Level FlightAware
Thu 02:50:59 AM 31.5260 134.7830 52° Northeast 602 693 39,000  Level FlightAware
Thu 02:51:49 AM 31.6110 134.9110 52° Northeast 603 694 39,000  Level FlightAware
Thu 02:52:29 AM 31.6690 134.9990 52° Northeast 603 694 39,000  Level FlightAware
Thu 02:53:19 AM 31.7420 135.1080 52° Northeast 603 694 39,000  Level FlightAware
Thu 02:53:59 AM 31.8000 135.1960 52° Northeast 603 694 39,000  Level FlightAware
Thu 02:54:39 AM 31.9010 135.3570 54° Northeast 606 697 39,000  Level FlightAware
Thu 02:55:19 AM 31.9700 135.4610 52° Northeast 605 696 39,000  Level FlightAware
Thu 02:56:04 AM 32.0470 135.5790 52° Northeast 606 697 39,000  Level FlightAware
Thu 02:56:49 AM 32.1160 135.6840 52° Northeast 607 699 39,000  Level FlightAware
Thu 02:57:29 AM 32.1920 135.8000 52° Northeast 606 697 39,000  Level FlightAware
Thu 02:58:09 AM 32.2590 135.9040 53° Northeast 607 699 39,000  Level FlightAware
Thu 02:58:59 AM 32.3460 136.0380 52° Northeast 608 700 39,000  Level FlightAware
Thu 02:59:39 AM 32.4110 136.1390 53° Northeast 608 700 39,000  Level FlightAware
Thu 03:00:17 AM 32.4680 136.2260 52° Northeast 608 700 39,000  Level FlightAware
Thu 03:00:57 AM 32.5270 136.3150 52° Northeast 608 700 39,000  Level FlightAware
Thu 03:01:38 AM 32.5880 136.4070 52° Northeast 608 700 39,000  Level FlightAware
Thu 03:02:23 AM 32.6530 136.5080 53° Northeast 608 700 39,000  Level FlightAware
Thu 03:03:03 AM 32.7120 136.5980 52° Northeast 608 700 39,000  Level FlightAware
Thu 03:03:48 AM 32.7920 136.8490 69° East 39,000  Level FlightAware
Thu 03:03:53 AM 32.7940 136.8520 52° Northeast 39,000  Level FlightAware
Thu 03:04:43 AM 32.8750 137.0080 58° Northeast 611 703 39,000  Level FlightAware
Thu 03:05:28 AM 32.9400 137.1350 59° Northeast 611 703 39,000  Level FlightAware
Thu 03:06:08 AM 32.9980 137.2470 58° Northeast 612 704 39,000  Level FlightAware
Thu 03:06:53 AM 33.0670 137.3810 58° Northeast 608 700 39,000  Level FlightAware
Thu 03:07:28 AM 33.1180 137.4810 59° Northeast 610 702 39,000  Level FlightAware
Thu 03:08:33 AM 33.2090 137.6610 59° Northeast 618 711 39,000  Level FlightAware
Thu 03:09:08 AM 33.2650 137.7710 59° Northeast 618 711 39,000  Level FlightAware
Thu 03:09:53 AM 33.3270 137.8940 59° Northeast 613 705 39,000  Level FlightAware
Thu 03:10:38 AM 33.3950 138.0290 59° Northeast 614 707 39,000  Level FlightAware
Thu 03:11:08 AM 33.4410 138.1190 58° Northeast 615 708 39,000  Level FlightAware
Thu 03:11:58 AM 33.5180 138.2730 59° Northeast 616 709 39,000  Level FlightAware
Thu 03:12:43 AM 33.5810 138.4010 59° Northeast 616 709 39,000  Level FlightAware
Thu 03:13:23 AM 33.6390 138.5170 59° Northeast 617 710 39,000  Level FlightAware
Thu 03:14:03 AM 33.6990 138.6400 60° Northeast 616 709 39,000  Level FlightAware
Thu 03:14:48 AM 33.7610 138.7640 59° Northeast 617 710 39,000 -300 Level FlightAware
Thu 03:15:23 AM 33.8160 138.8750 59° Northeast 621 715 38,600 -847 Descending FlightAware
Thu 03:16:13 AM 33.8890 139.0240 59° Northeast 621 715 37,800 -1,059 Descending FlightAware
Thu 03:16:48 AM 33.9440 139.1370 60° Northeast 622 716 37,100 -988 Descending FlightAware
Thu 03:17:38 AM 34.0090 139.2710 60° Northeast 613 705 36,400 -1,400 Descending FlightAware
Thu 03:18:18 AM 34.0690 139.3950 60° Northeast 603 694 35,000 -2,550 Descending FlightAware
Thu 03:18:58 AM 34.1250 139.5120 60° Northeast 607 699 33,000 -2,894 Descending FlightAware
Thu 03:19:43 AM 34.1930 139.6420 58° Northeast 591 680 30,900 -3,247 Descending FlightAware
Thu 03:20:23 AM 34.2510 139.7510 57° Northeast 580 667 28,400 -2,965 Descending FlightAware
Thu 03:21:08 AM 34.3150 139.8720 57° Northeast 556 640 26,700 -1,976 Descending FlightAware
Thu 03:21:48 AM 34.3670 139.9720 58° Northeast 552 635 25,600 -1,275 Descending FlightAware
Thu 03:22:28 AM 34.4250 140.0850 58° Northeast 549 632 25,000 -988 Descending FlightAware
Thu 03:23:13 AM 34.4830 140.1960 58° Northeast 541 623 24,200 -1,129 Descending FlightAware
Thu 03:23:53 AM 34.5350 140.2970 58° Northeast 529 609 23,400 -1,341 Descending FlightAware
Thu 03:24:38 AM 34.5960 140.4140 58° Northeast 514 592 22,300 -1,341 Descending FlightAware
Thu 03:25:18 AM 34.6420 140.5040 58° Northeast 494 568 21,500 -1,500 Descending FlightAware
Thu 03:25:58 AM 34.6930 140.6030 58° Northeast 464 534 20,300 -1,586 Descending FlightAware
Thu 03:27:38 AM 34.8470 140.6910 25° Northeast 370 426 17,800 -1,714 Descending FlightAware
Thu 03:28:18 AM 34.9250 140.7010 North 375 432 16,300 -1,906 Descending FlightAware
Thu 03:29:03 AM 35.0010 140.7110 North 355 409 15,100 -1,600 Descending FlightAware
Thu 03:29:33 AM 35.0520 140.7170 North 352 405 14,300 -1,364 Descending FlightAware
Thu 03:30:53 AM 35.1720 140.7310 North 339 390 12,600 -1,513 Descending FlightAware
Thu 03:31:28 AM 35.2350 140.7380 North 336 387 11,400 -1,694 Descending FlightAware
Thu 03:32:18 AM 35.3080 140.7480 North 327 376 10,200 -867 Descending FlightAware
Thu 03:32:58 AM 35.3640 140.7560 North 308 354 10,100 -55 Descending FlightAware
Thu 03:34:08 AM 35.4600 140.7490 357° North 257 296 10,100  Level FlightAware
Thu 03:34:53 AM 35.5080 140.7250 338° Northwest 242 278 10,100  Level FlightAware
Thu 03:35:33 AM 35.5490 140.7060 339° North 239 275 10,100 -185 Level FlightAware
Thu 03:35:58 AM 35.5770 140.6930 339° North 242 278 9,900 -873 Descending FlightAware
Thu 03:36:28 AM 35.6080 140.6780 339° North 241 277 9,300 -1,200 Descending FlightAware
Thu 03:36:53 AM 35.6340 140.6650 338° Northwest 227 261 8,800 -1,050 Descending FlightAware
Thu 03:37:08 AM 35.6470 140.6590 339° North 225 259 8,600 -933 Descending FlightAware
Thu 03:37:38 AM 35.6770 140.6440 338° Northwest 230 265 8,100 -1,080 Descending FlightAware
Thu 03:38:48 AM 35.7420 140.5970 330° Northwest 226 260 6,800 -857 Descending FlightAware
Thu 03:39:58 AM 35.8070 140.5490 329° Northwest 228 262 6,100 -300 Descending FlightAware
Thu 03:41:08 AM 35.8680 140.5030 329° Northwest 215 247 6,100 -214 Level FlightAware
Thu 03:42:18 AM 35.9300 140.4560 328° Northwest 214 246 5,600 -771 Descending FlightAware
Thu 03:43:28 AM 35.9780 140.4030 318° Northwest 207 238 4,300 -943 Descending FlightAware
Thu 03:44:38 AM 35.9810 140.3190 273° West 193 222 3,400 -720 Descending FlightAware
Thu 03:45:08 AM 35.9770 140.2890 261° West 186 214 3,100 -277 Descending FlightAware
Thu 03:45:43 AM 35.9650 140.2540 247° West 185 213 3,100 -267 Level FlightAware
Thu 03:45:53 AM 35.9520 140.2580 166° South 221 254 2,900 -343 Descending FlightAware
Thu 03:46:18 AM 35.9300 140.2580 180° South 167 192 2,900  Level FlightAware
Thu 03:46:48 AM 35.9100 140.2700 154° Southeast 164 189 2,900  Level FlightAware
Thu 03:46:58 AM 35.9040 140.2740 152° Southeast 158 182 2,900 -150 Level FlightAware
Thu 03:47:28 AM 35.8870 140.2870 148° Southeast 161 185 2,800 -635 Descending FlightAware
Thu 03:48:03 AM 35.8620 140.3050 150° Southeast 2,300 -873 Descending FlightAware
Thu 03:48:23 AM 35.8520 140.3120 150° Southeast 131 151 2,000 -720 Descending FlightAware
Thu 03:48:53 AM 35.8390 140.3220 148° Southeast 130 150 1,700 -655 Descending FlightAware
Thu 03:49:18 AM 35.8240 140.3320 152° Southeast 123 142 1,400 -720 Descending FlightAware
Thu 03:50:08 AM 35.7980 140.3510 149° Southeast 133 153 800 -480 Descending FlightAware
Thu 03:50:33 AM 35.7860 140.3600 149° Southeast 133 153 800  Level FlightAware
Thu 03:53:00 AM 35.7647 140.3864 135° Southeast  Level Estimated
Thu 03:54:00 AM 35.7647 140.3864 338° Northwest  Level Estimated
Thu 03:55:00 AM 35.7647 140.3864 338° Northwest  Level Estimated
Thu 03:56:00 AM 35.7647 140.3864 338° Northwest  Level Estimated

Login

Don't have an account? Register now (free) for customized features, flight alerts, and more!